Time;durP1;ratioP1;P1;durP2;ratioP2;P2;SDS_P1;SDS_P2;PMS_P1;PMS_P2;Temp;Humidity;BMP_temperature;BMP_pressure;BME280_temperature;BME280_humidity;BME280_pressure;Samples;Min_cycle;Max_cycle;Signal;HPM_P1;HPM_P2
2021/09/07 00:00:52;;;;;;;;;0.00;0.00;;;;;22.54;47.42;101821.53;5085763;27;45319;-82
2021/09/07 00:03:17;;;;;;;;;0.50;0.50;;;;;22.34;46.96;101807.00;5081331;27;45500;-80
2021/09/07 00:05:43;;;;;;;;;0.50;0.00;;;;;22.49;47.34;101837.59;5092999;27;45416;-79
2021/09/07 00:08:08;;;;;;;;;2.00;1.00;;;;;22.50;47.25;101835.78;5100624;27;45501;-82
2021/09/07 00:10:33;;;;;;;;;0.00;0.00;;;;;22.66;47.44;101854.88;5099096;27;46048;-80
2021/09/07 00:12:59;;;;;;;;;0.00;0.00;;;;;22.42;47.67;101811.22;5085483;27;45694;-80
2021/09/07 00:15:26;;;;;;;;;0.00;0.00;;;;;22.67;47.63;101853.09;5081931;27;45415;-82
2021/09/07 00:17:52;;;;;;;;;1.00;1.00;;;;;22.55;47.16;101835.66;5087542;27;45262;-80
2021/09/07 00:20:17;;;;;;;;;0.00;0.00;;;;;22.53;47.15;101833.06;5103552;27;45269;-81
2021/09/07 00:22:43;;;;;;;;;0.25;0.25;;;;;22.47;47.66;101822.59;5102712;27;45443;-80
2021/09/07 00:25:09;;;;;;;;;0.00;0.00;;;;;22.44;47.92;101814.69;5124003;27;45403;-81
2021/09/07 00:27:35;;;;;;;;;1.25;0.00;;;;;22.37;47.50;101803.38;5101683;27;45371;-82
2021/09/07 00:30:00;;;;;;;;;0.00;0.00;;;;;22.66;47.27;101849.56;5102213;27;45428;-81
2021/09/07 00:32:25;;;;;;;;;0.00;0.00;;;;;22.52;48.01;101845.47;5098877;27;45327;-82
2021/09/07 00:34:51;;;;;;;;;0.00;0.00;;;;;22.55;47.88;101856.91;5093606;27;45783;-82
2021/09/07 00:37:16;;;;;;;;;1.00;0.00;;;;;22.32;48.25;101822.06;5101881;27;45344;-81
2021/09/07 00:39:42;;;;;;;;;0.50;0.00;;;;;22.25;47.90;101809.84;5097502;27;45390;-83
2021/09/07 00:42:08;;;;;;;;;0.00;0.00;;;;;22.31;48.28;101833.59;5095705;27;47194;-82
2021/09/07 00:44:33;;;;;;;;;0.25;0.00;;;;;22.21;48.22;101829.41;5090031;27;45405;-81
2021/09/07 00:47:01;;;;;;;;;0.00;0.00;;;;;22.03;48.34;101805.06;5081114;28;45327;-81
2021/09/07 00:49:28;;;;;;;;;0.00;0.00;;;;;21.98;48.61;101801.63;5094469;27;45525;-80
2021/09/07 00:51:55;;;;;;;;;1.00;0.00;;;;;22.06;48.68;101827.97;5092030;27;47404;-81
2021/09/07 00:54:24;;;;;;;;;0.00;0.00;;;;;22.18;48.56;101843.59;5096565;27;45524;-81
2021/09/07 00:56:51;;;;;;;;;0.00;0.00;;;;;21.87;49.01;101785.97;5101603;27;45274;-80
2021/09/07 00:59:19;;;;;;;;;0.00;0.00;;;;;22.05;48.55;101815.63;5101353;27;45333;-82
2021/09/07 01:01:44;;;;;;;;;0.00;0.00;;;;;21.93;48.51;101799.06;5100397;27;45555;-80
2021/09/07 01:04:10;;;;;;;;;0.00;0.00;;;;;21.90;48.82;101805.31;5087339;27;45417;-81
2021/09/07 01:06:35;;;;;;;;;0.00;0.00;;;;;21.81;49.56;101787.00;5083967;28;45267;-81
2021/09/07 01:09:00;;;;;;;;;0.00;0.00;;;;;21.64;48.93;101760.81;5097105;27;45560;-80
2021/09/07 01:11:26;;;;;;;;;3.00;0.00;;;;;21.83;49.43;101792.22;5104310;27;45392;-82
2021/09/07 01:13:51;;;;;;;;;0.00;0.00;;;;;21.77;49.00;101788.81;5101320;27;45571;-80
2021/09/07 01:16:17;;;;;;;;;0.00;0.00;;;;;21.80;49.47;101782.56;5104378;27;45222;-80
2021/09/07 01:18:43;;;;;;;;;0.00;0.00;;;;;21.74;49.65;101777.38;5103266;27;45481;-82
2021/09/07 01:21:13;;;;;;;;;0.50;0.00;;;;;21.81;49.21;101794.06;5105507;27;46476;-79
2021/09/07 01:23:43;;;;;;;;;0.25;0.00;;;;;21.95;49.34;101818.47;5098661;27;45474;-80
2021/09/07 01:26:15;;;;;;;;;0.50;0.50;;;;;21.91;49.56;101824.75;5101157;27;45428;-81
2021/09/07 01:28:41;;;;;;;;;0.50;0.25;;;;;21.88;49.44;101817.75;5105922;27;45317;-81
2021/09/07 01:31:07;;;;;;;;;0.00;0.00;;;;;21.64;49.85;101788.19;5104283;27;47300;-80
2021/09/07 01:33:34;;;;;;;;;0.00;0.00;;;;;21.69;49.64;101793.41;5103354;27;45533;-83
2021/09/07 01:36:01;;;;;;;;;0.00;0.00;;;;;21.46;49.79;101762.94;5101953;27;45615;-80
2021/09/07 01:38:28;;;;;;;;;2.00;0.00;;;;;21.52;50.27;101780.50;5103744;27;45419;-80
2021/09/07 01:40:55;;;;;;;;;0.00;0.00;;;;;21.44;50.38;101771.84;5103415;27;47144;-80
2021/09/07 01:43:21;;;;;;;;;2.00;2.00;;;;;21.62;50.49;101807.69;5104275;27;45470;-81
2021/09/07 01:45:47;;;;;;;;;2.25;1.50;;;;;21.36;50.72;101770.22;5104393;27;45477;-79
2021/09/07 01:48:17;;;;;;;;;2.25;2.25;;;;;21.40;50.80;101781.63;5103685;27;45570;-81
2021/09/07 01:50:44;;;;;;;;;4.25;2.00;;;;;21.39;50.79;101780.75;5102955;27;46221;-82
2021/09/07 01:53:09;;;;;;;;;2.00;1.00;;;;;21.51;50.67;101806.13;5103887;27;45243;-80
2021/09/07 01:55:35;;;;;;;;;4.00;3.00;;;;;21.48;50.30;101800.00;5104279;27;45294;-82
2021/09/07 01:58:00;;;;;;;;;2.00;2.00;;;;;21.44;50.28;101799.19;5102837;27;45359;-80
2021/09/07 02:00:25;;;;;;;;;1.00;1.00;;;;;21.17;50.40;101766.19;5094385;27;47956;-79
2021/09/07 02:02:51;;;;;;;;;0.50;0.50;;;;;21.39;50.77;101801.06;5101627;27;45888;-82
2021/09/07 02:05:16;;;;;;;;;2.00;0.50;;;;;21.10;50.70;101752.22;5120827;27;45615;-80
2021/09/07 02:07:41;;;;;;;;;2.75;1.25;;;;;21.18;50.35;101760.88;5104032;27;45481;-80
2021/09/07 02:10:08;;;;;;;;;0.50;0.25;;;;;21.33;50.83;101782.66;5102386;27;46134;-81
2021/09/07 02:12:33;;;;;;;;;1.00;1.00;;;;;21.51;50.69;101803.47;5095420;27;45356;-78
2021/09/07 02:14:59;;;;;;;;;0.75;0.75;;;;;21.17;50.84;101745.91;5084324;28;45490;-81
2021/09/07 02:17:27;;;;;;;;;1.00;1.00;;;;;21.55;50.62;101804.28;5090451;27;45348;-81
2021/09/07 02:19:53;;;;;;;;;2.00;1.50;;;;;21.35;50.63;101764.97;5099075;27;45670;-83
2021/09/07 02:22:19;;;;;;;;;1.00;1.00;;;;;21.55;50.88;101800.72;5083983;27;46038;-81
2021/09/07 02:24:44;;;;;;;;;4.75;2.00;;;;;21.44;50.73;101793.03;5104651;27;45365;-82
2021/09/07 02:27:10;;;;;;;;;4.00;1.25;;;;;21.50;50.19;101799.06;5092621;27;45389;-82
2021/09/07 02:29:35;;;;;;;;;1.00;1.00;;;;;21.12;50.44;101727.47;5083499;27;46314;-80
2021/09/07 02:32:01;;;;;;;;;2.25;2.00;;;;;21.25;50.46;101761.59;5092656;27;45364;-82
2021/09/07 02:34:26;;;;;;;;;2.00;1.75;;;;;21.48;50.28;101792.94;5088320;27;45492;-80
2021/09/07 02:36:52;;;;;;;;;0.00;0.00;;;;;20.98;50.35;101717.13;5106031;27;45689;-81
2021/09/07 02:39:17;;;;;;;;;2.25;0.25;;;;;21.15;50.62;101742.41;5096030;27;47471;-82
2021/09/07 02:41:42;;;;;;;;;0.00;0.00;;;;;21.17;50.42;101735.31;5102386;27;45287;-80
2021/09/07 02:44:09;;;;;;;;;0.00;0.00;;;;;21.06;50.84;101716.09;5104060;27;45311;-83
2021/09/07 02:46:34;;;;;;;;;0.75;0.75;;;;;21.44;50.56;101777.13;5102540;27;46480;-81
2021/09/07 02:49:00;;;;;;;;;1.25;1.00;;;;;21.02;50.82;101704.72;5103197;27;46155;-81
2021/09/07 02:51:26;;;;;;;;;0.00;0.00;;;;;21.35;50.75;101765.81;5087038;27;45409;-82
2021/09/07 02:53:51;;;;;;;;;1.00;0.00;;;;;21.10;50.77;101726.59;5091235;27;45787;-81
2021/09/07 02:56:16;;;;;;;;;0.75;0.50;;;;;21.12;50.64;101731.88;5098507;27;45557;-83
2021/09/07 02:58:42;;;;;;;;;1.00;0.00;;;;;21.29;50.97;101752.72;5088056;27;46277;-81
2021/09/07 03:01:08;;;;;;;;;1.50;0.00;;;;;21.33;50.84;101764.09;5097495;27;45424;-82
2021/09/07 03:03:33;;;;;;;;;0.50;0.50;;;;;21.30;50.91;101762.41;5092838;27;45351;-82
2021/09/07 03:06:00;;;;;;;;;3.00;1.00;;;;;21.07;50.76;101737.25;5102268;27;45830;-79
2021/09/07 03:08:26;;;;;;;;;0.00;0.00;;;;;20.92;51.28;101719.88;5101623;27;47501;-82
2021/09/07 03:10:52;;;;;;;;;0.00;0.00;;;;;20.93;50.85;101728.72;5103530;27;45459;-81
2021/09/07 03:13:17;;;;;;;;;0.00;0.00;;;;;20.91;51.75;101720.81;5103509;27;45709;-82
2021/09/07 03:15:43;;;;;;;;;0.00;0.00;;;;;20.98;51.79;101746.25;5103201;27;45293;-82
2021/09/07 03:18:09;;;;;;;;;0.00;0.00;;;;;21.04;51.55;101755.84;5093078;27;48074;-81
2021/09/07 03:20:34;;;;;;;;;1.75;1.75;;;;;20.77;51.88;101713.97;5090723;27;45568;-83
2021/09/07 03:23:00;;;;;;;;;0.00;0.00;;;;;20.94;51.36;101746.31;5105632;27;45332;-81
2021/09/07 03:25:25;;;;;;;;;0.00;0.00;;;;;21.01;51.65;101761.22;5124572;27;45489;-80
2021/09/07 03:27:51;;;;;;;;;0.00;0.00;;;;;20.94;52.02;101756.91;5117311;27;46987;-81
2021/09/07 03:30:16;;;;;;;;;1.00;1.00;;;;;20.73;52.09;101728.16;5090081;27;45905;-81
2021/09/07 03:32:41;;;;;;;;;1.00;0.00;;;;;20.62;52.13;101717.75;5095454;27;45389;-79
2021/09/07 03:35:07;;;;;;;;;0.50;0.50;;;;;20.68;52.50;101723.84;5082493;27;45306;-81
2021/09/07 03:37:33;;;;;;;;;0.00;0.00;;;;;20.83;52.33;101746.50;5083378;27;46092;-78
2021/09/07 03:39:58;;;;;;;;;0.00;0.00;;;;;20.56;52.76;101707.31;5102194;27;45332;-79
2021/09/07 03:42:25;;;;;;;;;0.50;0.50;;;;;20.59;52.18;101714.31;5101605;27;45346;-81
2021/09/07 03:44:50;;;;;;;;;0.50;0.50;;;;;20.69;52.25;101734.41;5113878;27;45465;-78
2021/09/07 03:47:15;;;;;;;;;0.00;0.00;;;;;20.46;52.70;101703.09;5084834;27;46024;-80
2021/09/07 03:49:41;;;;;;;;;0.00;0.00;;;;;20.76;52.81;101743.97;5100583;27;45164;-80
2021/09/07 03:52:06;;;;;;;;;1.00;1.00;;;;;20.54;52.54;101705.56;5082726;27;45311;-79
2021/09/07 03:54:32;;;;;;;;;1.00;0.00;;;;;20.62;52.85;101715.09;5082500;27;45500;-80
2021/09/07 03:56:57;;;;;;;;;1.00;1.00;;;;;20.67;52.68;101722.97;5084442;27;47144;-82
2021/09/07 03:59:22;;;;;;;;;0.25;0.25;;;;;20.58;52.58;101716.06;5093199;27;45409;-81
2021/09/07 04:01:48;;;;;;;;;0.00;0.00;;;;;20.67;52.62;101730.06;5089935;27;45701;-81
2021/09/07 04:04:13;;;;;;;;;1.25;1.00;;;;;20.55;52.95;101707.34;5101830;27;45535;-83
2021/09/07 04:06:39;;;;;;;;;0.00;0.00;;;;;20.73;52.76;101744.03;5102369;27;45588;-80
2021/09/07 04:09:04;;;;;;;;;1.00;0.00;;;;;20.67;52.74;101735.34;5090666;27;45432;-82
2021/09/07 04:11:29;;;;;;;;;1.00;0.50;;;;;20.61;52.73;101747.75;5101509;27;45705;-81
2021/09/07 04:13:55;;;;;;;;;1.00;1.00;;;;;20.55;53.17;101747.88;5098732;27;45608;-81
2021/09/07 04:16:20;;;;;;;;;1.00;1.00;;;;;20.53;52.87;101743.50;5087441;27;46986;-80
2021/09/07 04:18:45;;;;;;;;;1.00;0.50;;;;;20.30;53.22;101708.63;5096556;27;45633;-80
2021/09/07 04:21:12;;;;;;;;;0.25;0.25;;;;;20.34;53.38;101709.47;5090041;27;45399;-82
2021/09/07 04:23:38;;;;;;;;;2.00;1.75;;;;;20.45;53.45;101727.75;5101556;27;45180;-82
2021/09/07 04:26:05;;;;;;;;;0.25;0.25;;;;;20.62;53.63;101754.78;5104875;27;46211;-80
2021/09/07 04:28:30;;;;;;;;;0.50;0.00;;;;;20.49;53.21;101734.78;5091662;27;46928;-83
2021/09/07 04:30:55;;;;;;;;;1.50;1.50;;;;;20.57;53.26;101761.06;5111518;27;45693;-80
2021/09/07 04:33:21;;;;;;;;;1.00;0.00;;;;;20.33;53.75;101726.19;5099306;27;45521;-80
2021/09/07 04:35:46;;;;;;;;;1.00;0.25;;;;;20.46;53.83;101753.31;5105538;27;46413;-82
2021/09/07 04:38:12;;;;;;;;;2.00;0.75;;;;;20.40;53.67;101741.09;5123532;27;45320;-82
2021/09/07 04:40:37;;;;;;;;;0.00;0.00;;;;;20.07;53.61;101695.78;5102411;27;45475;-81
2021/09/07 04:43:03;;;;;;;;;0.25;0.00;;;;;20.39;53.45;101752.53;5105766;27;45296;-82
2021/09/07 04:45:28;;;;;;;;;0.25;0.25;;;;;20.17;53.64;101726.47;5105423;27;45282;-81
2021/09/07 04:47:53;;;;;;;;;0.25;0.25;;;;;20.42;53.71;101776.28;5105185;27;45486;-80
2021/09/07 04:50:19;;;;;;;;;1.75;0.75;;;;;19.95;53.89;101695.06;5105033;27;45373;-84
2021/09/07 04:52:44;;;;;;;;;2.00;0.75;;;;;20.10;53.60;101728.34;5106100;27;45504;-81
2021/09/07 04:55:10;;;;;;;;;1.00;1.00;;;;;20.33;54.04;101764.09;5102595;27;45546;-81
2021/09/07 04:57:35;;;;;;;;;0.00;0.00;;;;;20.39;53.77;101773.69;5103047;27;45909;-82
2021/09/07 05:00:00;;;;;;;;;1.25;1.00;;;;;20.22;53.83;101744.91;5105102;27;45247;-82
2021/09/07 05:02:26;;;;;;;;;0.00;0.00;;;;;20.41;53.98;101778.97;5101060;27;45561;-82
2021/09/07 05:04:51;;;;;;;;;0.00;0.00;;;;;20.22;53.66;101751.03;5104541;27;45326;-83
2021/09/07 05:07:16;;;;;;;;;1.50;0.25;;;;;20.32;54.03;101772.94;5104828;27;45363;-84
2021/09/07 05:09:42;;;;;;;;;0.75;0.75;;;;;20.10;53.89;101735.38;5105344;27;45345;-83
2021/09/07 05:12:07;;;;;;;;;0.00;0.00;;;;;19.99;54.37;101723.19;5105423;27;45462;-82
2021/09/07 05:14:33;;;;;;;;;0.00;0.00;;;;;20.05;54.06;101750.44;5104580;27;45268;-82
2021/09/07 05:16:58;;;;;;;;;0.75;0.75;;;;;19.88;54.28;101733.91;5103851;27;45301;-84
2021/09/07 05:19:23;;;;;;;;;2.00;0.00;;;;;19.96;54.72;101751.41;5105069;27;45469;-85
2021/09/07 05:21:49;;;;;;;;;0.25;0.00;;;;;19.86;54.49;101732.19;5105395;27;45503;-81
2021/09/07 05:24:14;;;;;;;;;1.00;1.00;;;;;19.83;54.28;101730.47;5105213;27;45557;-82
2021/09/07 05:26:39;;;;;;;;;1.00;1.00;;;;;19.96;54.44;101767.25;5103355;27;45729;-83
2021/09/07 05:29:05;;;;;;;;;0.00;0.00;;;;;19.78;54.50;101740.22;5104725;27;45289;-85
2021/09/07 05:31:32;;;;;;;;;1.00;1.00;;;;;20.02;54.59;101761.03;5103517;27;45342;-83
2021/09/07 05:33:57;;;;;;;;;0.25;0.25;;;;;19.69;54.60;101711.31;5100436;27;48213;-85
2021/09/07 05:36:23;;;;;;;;;2.00;0.50;;;;;19.96;54.67;101761.97;5103770;27;45290;-82
2021/09/07 05:38:48;;;;;;;;;1.00;1.00;;;;;19.79;54.83;101741.97;5107494;27;45385;-82
2021/09/07 05:41:13;;;;;;;;;1.25;0.00;;;;;19.85;54.63;101757.72;5092875;27;45533;-81
2021/09/07 05:43:39;;;;;;;;;0.25;0.25;;;;;19.82;54.76;101747.19;5112539;27;47325;-86
2021/09/07 05:46:04;;;;;;;;;0.50;0.00;;;;;19.65;54.59;101720.16;5084676;28;45602;-88
2021/09/07 05:48:30;;;;;;;;;0.25;0.25;;;;;19.71;54.66;101730.63;5089065;27;45353;-83
2021/09/07 05:50:55;;;;;;;;;0.75;0.75;;;;;19.91;54.94;101775.28;5105813;27;45459;-86
2021/09/07 05:53:20;;;;;;;;;1.50;1.50;;;;;19.43;54.54;101679.09;5102027;27;46459;-86
2021/09/07 05:55:46;;;;;;;;;1.00;0.00;;;;;19.62;54.86;101721.06;5112737;27;45420;-86
2021/09/07 05:58:11;;;;;;;;;0.00;0.00;;;;;19.35;54.78;101680.94;5102979;27;45283;-83
2021/09/07 06:00:36;;;;;;;;;3.50;1.50;;;;;19.56;54.53;101726.44;5105069;27;45540;-87
2021/09/07 06:03:08;;;;;;;;;0.00;0.00;;;;;19.95;55.11;101768.16;5101835;27;46353;-84
2021/09/07 06:05:33;;;;;;;;;1.75;0.00;;;;;19.99;54.38;101778.69;5102991;27;45486;-85
2021/09/07 06:07:59;;;;;;;;;1.75;1.00;;;;;20.12;54.65;101797.00;5103370;27;45483;-83
2021/09/07 06:10:24;;;;;;;;;1.00;1.00;;;;;19.86;54.75;101741.00;5103305;27;45457;-83
2021/09/07 06:12:49;;;;;;;;;2.50;1.00;;;;;19.72;54.62;101727.09;5102601;27;46602;-84
2021/09/07 06:18:17;;;;;;;;;4.25;0.00;;;;;19.09;54.50;101608.28;5085778;27;45468;-77
2021/09/07 06:20:42;;;;;;;;;0.00;0.00;;;;;19.29;54.74;101638.81;5094462;27;45673;-77
2021/09/07 06:23:07;;;;;;;;;3.25;0.50;;;;;20.30;54.47;101789.72;5097590;27;45526;-79
2021/09/07 06:25:33;;;;;;;;;0.00;0.00;;;;;20.23;54.68;101784.53;5102301;27;45263;-82
2021/09/07 06:27:58;;;;;;;;;0.75;0.75;;;;;20.08;54.61;101760.97;5099303;27;46329;-79
2021/09/07 06:30:24;;;;;;;;;0.00;0.00;;;;;19.81;54.68;101707.63;5096460;27;45760;-81
2021/09/07 06:32:49;;;;;;;;;2.00;2.00;;;;;20.19;54.39;101779.31;5093874;27;47065;-81
2021/09/07 06:35:14;;;;;;;;;2.75;1.75;;;;;20.14;54.34;101776.72;5102098;27;45475;-79
2021/09/07 06:37:42;;;;;;;;;0.75;0.75;;;;;20.21;54.70;101794.25;5102578;27;45956;-80
2021/09/07 06:40:08;;;;;;;;;2.00;2.00;;;;;20.14;54.64;101782.00;5100412;27;45429;-80
2021/09/07 06:42:34;;;;;;;;;0.50;0.50;;;;;20.27;54.81;101795.91;5101990;27;45527;-79
2021/09/07 06:44:59;;;;;;;;;1.00;0.25;;;;;19.87;54.56;101726.88;5101691;27;45344;-79
2021/09/07 06:47:24;;;;;;;;;0.00;0.00;;;;;20.27;54.26;101784.47;5098920;27;45213;-80
2021/09/07 06:49:50;;;;;;;;;0.25;0.00;;;;;19.83;54.15;101719.03;5100226;27;45507;-81
2021/09/07 06:52:15;;;;;;;;;0.50;0.50;;;;;20.42;54.49;101802.72;5102030;27;45285;-78
2021/09/07 06:54:40;;;;;;;;;2.00;1.00;;;;;19.95;54.25;101718.84;5101940;27;45415;-78
2021/09/07 06:57:06;;;;;;;;;1.50;0.00;;;;;20.09;54.22;101738.94;5100071;27;45390;-80
2021/09/07 06:59:31;;;;;;;;;0.50;0.00;;;;;20.13;54.48;101741.47;5102255;27;45364;-80
2021/09/07 07:01:56;;;;;;;;;2.00;1.00;;;;;20.32;53.88;101754.44;5099798;27;47305;-80
2021/09/07 07:04:22;;;;;;;;;2.00;0.75;;;;;20.45;54.40;101756.84;5096248;27;45448;-78
2021/09/07 07:06:47;;;;;;;;;0.00;0.00;;;;;20.51;53.56;101754.09;5098713;27;45504;-81
2021/09/07 07:09:12;;;;;;;;;0.00;0.00;;;;;20.53;53.61;101744.38;5098493;27;46009;-82
2021/09/07 07:11:38;;;;;;;;;0.00;0.00;;;;;20.82;53.32;101782.66;5099241;27;46981;-81
2021/09/07 07:14:03;;;;;;;;;0.00;0.00;;;;;21.03;53.52;101809.69;5101132;27;45625;-81
2021/09/07 07:16:28;;;;;;;;;0.00;0.00;;;;;20.98;53.30;101790.38;5099919;27;45531;-81
2021/09/07 07:18:54;;;;;;;;;1.00;1.00;;;;;20.68;52.81;101734.44;5100238;27;45324;-81
2021/09/07 07:21:29;;;;;;;;;0.00;0.00;;;;;20.90;52.79;101758.75;5100305;27;45470;-81
2021/09/07 07:23:56;;;;;;;;;1.00;0.00;;;;;20.76;53.28;101743.97;5097457;27;45267;-79
2021/09/07 07:26:25;;;;;;;;;2.00;0.00;;;;;20.14;53.17;101641.94;5099604;27;45502;-82
2021/09/07 07:28:59;;;;;;;;;2.25;0.00;;;;;19.85;52.70;101574.56;5100140;27;45229;-79
2021/09/07 07:31:28;;;;;;;;;1.00;1.00;;;;;20.35;52.58;101664.50;5098048;27;47144;-78
2021/09/07 07:33:53;;;;;;;;;0.00;0.00;;;;;20.62;52.55;101693.09;5096950;27;47060;-78
2021/09/07 07:36:27;;;;;;;;;1.00;1.00;;;;;21.19;52.82;101788.22;5107467;27;45282;-79
2021/09/07 07:38:53;;;;;;;;;0.00;0.00;;;;;20.94;52.99;101730.44;5094510;27;46616;-78
2021/09/07 07:41:18;;;;;;;;;0.00;0.00;;;;;20.93;52.72;101720.78;5106821;27;47803;-80
2021/09/07 07:43:44;;;;;;;;;0.00;0.00;;;;;20.71;52.49;101678.81;5105300;27;45534;-80
2021/09/07 07:46:15;;;;;;;;;0.00;0.00;;;;;21.24;51.99;101747.50;5099421;27;45387;-81
2021/09/07 07:48:53;;;;;;;;;0.50;0.50;;;;;20.98;52.29;101703.91;5102148;27;45258;-80
2021/09/07 07:51:27;;;;;;;;;3.50;1.00;;;;;21.01;52.14;101681.81;5102286;27;45684;-81
2021/09/07 07:53:57;;;;;;;;;2.00;1.00;;;;;21.17;51.97;101711.47;5097101;27;45341;-81
2021/09/07 07:56:23;;;;;;;;;1.00;0.00;;;;;21.28;51.63;101727.13;5100605;27;45287;-81
2021/09/07 07:58:48;;;;;;;;;0.75;0.75;;;;;21.11;51.95;101690.44;5100955;27;45392;-82
2021/09/07 08:01:19;;;;;;;;;1.00;0.00;;;;;21.33;51.75;101717.31;5100750;27;46370;-80
2021/09/07 08:03:47;;;;;;;;;1.00;1.00;;;;;21.50;51.65;101722.25;5104634;27;45307;-79
2021/09/07 08:06:16;;;;;;;;;5.25;0.25;;;;;20.74;51.66;101591.47;5094023;27;45354;-80
2021/09/07 08:08:50;;;;;;;;;0.00;0.00;;;;;21.67;50.79;101743.97;5110786;27;45480;-78
2021/09/07 08:11:16;;;;;;;;;1.00;1.00;;;;;21.82;51.38;101756.94;5118723;27;48083;-80
2021/09/07 08:13:45;;;;;;;;;0.00;0.00;;;;;21.11;51.26;101625.13;5100069;27;45921;-79
2021/09/07 08:16:14;;;;;;;;;1.00;0.25;;;;;22.46;50.63;101837.66;5104067;27;45400;-80
2021/09/07 08:18:42;;;;;;;;;0.25;0.25;;;;;21.44;50.59;101650.00;5101167;27;45513;-80
2021/09/07 08:21:08;;;;;;;;;1.50;1.00;;;;;22.06;49.93;101736.06;5100403;27;46152;-78
2021/09/07 08:23:34;;;;;;;;;3.50;1.75;;;;;22.00;49.80;101710.56;5112982;27;46711;-79
2021/09/07 08:25:59;;;;;;;;;1.00;0.00;;;;;22.27;49.55;101744.41;5098903;27;45388;-78
2021/09/07 08:28:25;;;;;;;;;1.00;1.00;;;;;21.80;49.92;101639.47;5099090;27;45641;-79
2021/09/07 08:30:50;;;;;;;;;1.00;1.00;;;;;22.02;49.33;101660.19;5101099;27;46206;-80
2021/09/07 08:33:21;;;;;;;;;0.25;0.25;;;;;23.01;48.87;101828.34;5099001;27;45347;-79
2021/09/07 08:35:47;;;;;;;;;0.00;0.00;;;;;22.34;49.02;101695.59;5099696;27;45491;-81
2021/09/07 08:38:13;;;;;;;;;1.25;1.00;;;;;22.75;48.94;101744.97;5099009;27;45886;-89
2021/09/07 08:40:56;;;;;;;;;1.00;1.00;;;;;22.56;48.50;101702.09;5099110;27;47330;-78
2021/09/07 08:43:45;;;;;;;;;1.00;1.00;;;;;22.19;48.49;101625.25;5097414;27;45594;-79
2021/09/07 08:46:21;;;;;;;;;2.75;1.75;;;;;22.18;47.99;101604.09;5099956;27;45508;-80
2021/09/07 08:48:47;;;;;;;;;0.25;0.25;;;;;22.62;48.47;101665.72;5118003;27;45563;-80
2021/09/07 08:51:17;;;;;;;;;3.50;1.75;;;;;23.13;47.56;101742.19;5100353;27;46045;-82
2021/09/07 08:53:46;;;;;;;;;1.00;0.00;;;;;22.78;47.36;101646.69;5099018;27;45506;-82
2021/09/07 08:56:14;;;;;;;;;0.50;0.00;;;;;23.69;47.15;101785.75;5097968;27;45558;-82
2021/09/07 08:58:43;;;;;;;;;0.00;0.00;;;;;23.93;47.33;101804.53;5101207;27;45568;-81
2021/09/07 09:01:11;;;;;;;;;2.00;0.50;;;;;23.77;46.77;101764.25;5103432;27;45539;-81
2021/09/07 09:03:39;;;;;;;;;0.00;0.00;;;;;23.91;46.90;101755.81;5096682;27;45456;-80
2021/09/07 09:06:04;;;;;;;;;0.50;0.50;;;;;23.47;45.98;101682.78;5104247;27;45349;-82
2021/09/07 09:08:31;;;;;;;;;0.00;0.00;;;;;23.52;45.49;101678.19;5104589;27;45236;-78
2021/09/07 09:11:09;;;;;;;;;0.00;0.00;;;;;24.25;45.67;101777.84;5100740;27;45384;-79
2021/09/07 09:13:43;;;;;;;;;0.00;0.00;;;;;24.63;44.72;101825.41;5097638;27;44857;-80
2021/09/07 09:16:14;;;;;;;;;0.25;0.25;;;;;23.57;44.75;101634.63;5100544;27;45295;-80
2021/09/07 09:18:45;;;;;;;;;0.25;0.25;;;;;24.61;44.26;101798.81;5098298;27;46472;-82
2021/09/07 09:21:26;;;;;;;;;0.00;0.00;;;;;24.84;43.87;101826.47;5099538;27;46642;-80
2021/09/07 09:24:12;;;;;;;;;0.00;0.00;;;;;24.68;42.97;101783.50;5102990;27;45582;-83
2021/09/07 09:27:02;;;;;;;;;0.75;0.00;;;;;25.10;42.92;101824.69;5098623;27;45559;-86
2021/09/07 09:29:30;;;;;;;;;0.50;0.00;;;;;24.05;42.94;101639.25;5109296;27;45338;-81
2021/09/07 09:32:00;;;;;;;;;0.00;0.00;;;;;24.31;43.32;101660.59;5120417;27;45186;-80
2021/09/07 09:34:26;;;;;;;;;0.50;0.25;;;;;24.20;42.72;101629.06;5113824;27;45157;-80
2021/09/07 09:37:20;;;;;;;;;0.50;0.50;;;;;25.34;42.56;101778.56;5107960;27;45258;-81
2021/09/07 09:39:47;;;;;;;;;0.00;0.00;;;;;25.72;41.97;101821.56;5104971;27;45345;-81
2021/09/07 09:42:19;;;;;;;;;0.00;0.00;;;;;24.86;41.97;101664.84;5110536;27;45450;-81
2021/09/07 09:45:06;;;;;;;;;1.50;0.75;;;;;25.07;42.08;101690.75;5102213;27;45310;-84
2021/09/07 09:47:33;;;;;;;;;1.75;0.00;;;;;25.91;41.90;101797.72;5121425;27;45526;-84
2021/09/07 09:50:02;;;;;;;;;1.50;1.50;;;;;25.27;41.95;101677.53;5105601;27;45634;-83
2021/09/07 09:52:28;;;;;;;;;0.00;0.00;;;;;25.51;41.07;101736.13;5102920;27;46940;-81
2021/09/07 09:54:55;;;;;;;;;0.00;0.00;;;;;25.99;41.33;101783.19;5104368;27;45479;-81
2021/09/07 09:57:21;;;;;;;;;0.00;0.00;;;;;25.82;40.79;101744.78;5103474;27;45419;-79
2021/09/07 09:59:48;;;;;;;;;1.00;0.00;;;;;25.50;40.45;101686.44;5099863;27;45495;-84
2021/09/07 10:02:13;;;;;;;;;0.00;0.00;;;;;25.25;40.46;101628.78;5103474;27;46183;-82
2021/09/07 10:04:40;;;;;;;;;0.00;0.00;;;;;26.37;40.00;101793.28;5099479;27;45563;-84
2021/09/07 10:07:07;;;;;;;;;1.00;1.00;;;;;26.24;40.42;101760.88;5098969;27;45454;-83
2021/09/07 10:09:38;;;;;;;;;0.50;0.50;;;;;25.60;39.79;101648.78;5094661;27;46803;-82
2021/09/07 10:12:37;;;;;;;;;0.00;0.00;;;;;26.56;39.23;101783.53;5094219;27;47252;-81
2021/09/07 10:15:16;;;;;;;;;1.00;1.00;;;;;26.64;38.97;101779.69;5088792;27;46035;-84
2021/09/07 10:17:46;;;;;;;;;1.50;0.25;;;;;26.72;39.05;101780.22;5102442;27;45534;-82
2021/09/07 10:20:24;;;;;;;;;1.25;1.00;;;;;26.75;38.41;101774.75;5099120;27;45543;-83
2021/09/07 10:25:49;;;;;;;;;0.00;0.00;;;;;26.78;39.10;101763.06;5097733;27;45429;-81
2021/09/07 10:28:30;;;;;;;;;0.00;0.00;;;;;26.79;38.14;101756.78;5097169;27;45901;-79
2021/09/07 10:30:59;;;;;;;;;0.50;0.00;;;;;26.75;37.71;101741.81;5112861;27;45451;-80
2021/09/07 10:33:38;;;;;;;;;0.50;0.50;;;;;26.89;37.86;101752.75;5099754;27;47446;-82
2021/09/07 10:36:09;;;;;;;;;0.00;0.00;;;;;26.69;37.84;101709.13;5114554;27;45472;-82
2021/09/07 10:38:43;;;;;;;;;1.00;0.00;;;;;27.02;38.01;101742.44;5096786;27;45550;-82
2021/09/07 10:41:29;;;;;;;;;1.00;0.25;;;;;26.98;37.28;101721.28;5095436;27;45473;-84
2021/09/07 10:43:54;;;;;;;;;1.25;0.75;;;;;26.89;37.36;101701.16;5098525;27;47086;-80
2021/09/07 10:46:49;;;;;;;;;0.75;0.75;;;;;27.11;37.19;101724.25;5094419;27;45372;-81
2021/09/07 10:49:26;;;;;;;;;2.00;0.00;;;;;27.12;37.84;101729.53;5097621;27;45480;-78
2021/09/07 10:54:37;;;;;;;;;0.00;0.00;;;;;27.06;37.30;101695.06;5093291;27;46427;-83
2021/09/07 10:57:02;;;;;;;;;0.00;0.00;;;;;27.20;37.32;101705.13;5098626;27;45507;-83
2021/09/07 10:59:50;;;;;;;;;0.25;0.25;;;;;27.34;37.38;101711.63;5100383;27;45529;-81
2021/09/07 11:02:32;;;;;;;;;1.25;0.25;;;;;27.28;37.96;101691.38;5105323;27;45318;-79
2021/09/07 11:05:02;;;;;;;;;1.25;1.25;;;;;27.34;36.29;101701.78;5101631;27;45814;-79
2021/09/07 11:07:45;;;;;;;;;1.00;1.00;;;;;27.36;37.21;101691.03;5106071;27;45950;-80
2021/09/07 11:10:16;;;;;;;;;1.00;0.00;;;;;27.38;36.73;101695.34;5098373;27;45483;-80
2021/09/07 11:12:52;;;;;;;;;1.00;1.00;;;;;27.38;36.82;101690.00;5096215;27;45521;-81
2021/09/07 11:15:23;;;;;;;;;0.50;0.50;;;;;27.32;36.91;101679.63;5098955;27;45483;-80
2021/09/07 11:18:14;;;;;;;;;0.50;0.00;;;;;27.40;36.70;101679.22;5091872;27;45460;-81
2021/09/07 11:20:43;;;;;;;;;0.00;0.00;;;;;27.30;37.27;101668.13;5098461;27;46506;-82
2021/09/07 11:23:11;;;;;;;;;1.00;1.00;;;;;27.43;36.91;101671.06;5102971;27;45499;-82
2021/09/07 11:25:38;;;;;;;;;0.50;0.00;;;;;27.19;36.48;101628.53;5104532;27;46150;-81
2021/09/07 11:28:05;;;;;;;;;0.75;0.25;;;;;27.44;36.51;101671.00;5107654;27;45416;-82
2021/09/07 11:30:32;;;;;;;;;0.00;0.00;;;;;27.45;36.75;101672.75;5097714;27;45567;-79
2021/09/07 11:33:02;;;;;;;;;1.50;1.00;;;;;27.35;36.50;101643.84;5093965;27;45428;-81
2021/09/07 11:35:31;;;;;;;;;0.00;0.00;;;;;27.53;36.58;101666.16;5099823;27;45506;-81